Time;durP1;ratioP1;P1;durP2;ratioP2;P2;SDS_P1;SDS_P2;PMS_P1;PMS_P2;Temp;Humidity;BMP_temperature;BMP_pressure;BME280_temperature;BME280_humidity;BME280_pressure;Samples;Min_cycle;Max_cycle;Signal;HPM_P1;HPM_P2
2023/04/27 00:01:33;;;;;;;1.80;1.40;;;;;;;-143.99;100.00;64180.81;6120934;28;20235;-73
2023/04/27 00:04:54;;;;;;;1.37;1.37;;;;;;;-143.99;100.00;64180.81;6133089;28;20234;-73
2023/04/27 00:08:17;;;;;;;2.90;2.00;;;;;;;-143.99;100.00;64180.81;6128667;28;20227;-73
2023/04/27 00:11:38;;;;;;;2.27;2.03;;;;;;;-143.99;100.00;64180.81;6140077;28;20227;-73
2023/04/27 00:14:58;;;;;;;11.10;1.70;;;;;;;-143.99;100.00;64180.81;6117304;28;20231;-73
2023/04/27 00:18:19;;;;;;;1.87;1.47;;;;;;;-143.99;100.00;64180.81;6130095;28;20605;-73
2023/04/27 00:21:40;;;;;;;2.70;1.83;;;;;;;-143.99;100.00;64180.81;6139678;28;20258;-73
2023/04/27 00:25:02;;;;;;;2.90;1.57;;;;;;;-143.99;100.00;64180.81;6122715;28;20234;-72
2023/04/27 00:28:23;;;;;;;2.13;1.63;;;;;;;-143.99;100.00;64180.81;6123921;28;20243;-73
2023/04/27 00:31:44;;;;;;;2.13;1.60;;;;;;;-143.99;100.00;64180.81;6147623;28;20219;-73
2023/04/27 00:35:06;;;;;;;2.50;1.57;;;;;;;-143.99;100.00;64180.81;6135096;28;20234;-73
2023/04/27 00:38:27;;;;;;;2.33;1.63;;;;;;;-143.99;100.00;64180.81;6129744;28;20608;-72
2023/04/27 00:41:49;;;;;;;2.03;1.40;;;;;;;-143.99;100.00;64180.81;6129898;28;20235;-73
2023/04/27 00:45:12;;;;;;;2.40;2.20;;;;;;;-143.99;100.00;64180.81;6129647;28;20239;-72
2023/04/27 00:48:33;;;;;;;2.60;2.40;;;;;;;-143.99;100.00;64180.81;6124355;28;20244;-73
2023/04/27 00:51:54;;;;;;;6.23;2.30;;;;;;;-143.99;100.00;64180.81;6135205;28;20752;-73
2023/04/27 00:55:16;;;;;;;2.23;2.00;;;;;;;-143.99;100.00;64180.81;6138793;28;20234;-72
2023/04/27 00:58:38;;;;;;;2.37;1.60;;;;;;;-143.99;100.00;64180.81;6124606;28;20268;-73
2023/04/27 01:02:00;;;;;;;2.00;1.30;;;;;;;-143.99;100.00;64180.81;6133677;28;20235;-73
2023/04/27 01:05:23;;;;;;;5.33;1.93;;;;;;;-143.99;100.00;64180.81;6134346;28;20238;-73
2023/04/27 01:08:45;;;;;;;2.53;1.47;;;;;;;-143.99;100.00;64180.81;6125391;28;20238;-73
2023/04/27 01:12:07;;;;;;;4.17;2.37;;;;;;;-143.99;100.00;64180.81;6138974;28;20234;-73
2023/04/27 01:15:29;;;;;;;1.90;1.80;;;;;;;-143.99;100.00;64180.81;6139083;28;20234;-73
2023/04/27 01:18:50;;;;;;;1.80;1.70;;;;;;;-143.99;100.00;64180.81;6122379;28;20255;-73
2023/04/27 01:22:14;;;;;;;2.00;1.80;;;;;;;-143.99;100.00;64180.81;6141520;28;20246;-73
2023/04/27 01:25:36;;;;;;;2.87;1.50;;;;;;;-143.99;100.00;64180.81;6133756;28;20230;-73
2023/04/27 01:28:56;;;;;;;3.33;1.83;;;;;;;-143.99;100.00;64180.81;6128643;28;20242;-73
2023/04/27 01:32:17;;;;;;;3.03;1.97;;;;;;;-143.99;100.00;64180.81;6134135;28;20232;-72
2023/04/27 01:35:38;;;;;;;1.67;1.33;;;;;;;-143.99;100.00;64180.81;6131880;28;20363;-74
2023/04/27 01:38:59;;;;;;;3.30;2.83;;;;;;;-143.99;100.00;64180.81;6138166;28;20230;-73
2023/04/27 01:42:21;;;;;;;2.60;1.90;;;;;;;-143.99;100.00;64180.81;6131211;28;20235;-73
2023/04/27 01:45:42;;;;;;;4.63;2.20;;;;;;;-143.99;100.00;64180.81;6126355;28;20227;-72
2023/04/27 01:49:03;;;;;;;1.77;1.67;;;;;;;-143.99;100.00;64180.81;6138707;28;20227;-73
2023/04/27 01:52:24;;;;;;;6.17;1.90;;;;;;;-143.99;100.00;64180.81;6144984;28;20613;-73
2023/04/27 01:55:45;;;;;;;2.53;2.33;;;;;;;-143.99;100.00;64180.81;6138149;28;21151;-73
2023/04/27 01:59:08;;;;;;;1.73;1.63;;;;;;;-143.99;100.00;64180.81;6139461;28;21944;-73
2023/04/27 02:02:29;;;;;;;4.70;2.23;;;;;;;-143.99;100.00;64180.81;6141860;28;20235;-72
2023/04/27 02:05:50;;;;;;;3.17;1.83;;;;;;;-143.99;100.00;64180.81;6143354;28;20326;-73
2023/04/27 02:09:13;;;;;;;2.73;1.33;;;;;;;-143.99;100.00;64180.81;6135731;28;20243;-72
2023/04/27 02:12:34;;;;;;;2.80;1.70;;;;;;;-143.99;100.00;64180.81;6136958;28;20258;-73
2023/04/27 02:16:00;;;;;;;2.93;1.63;;;;;;;-143.99;100.00;64180.81;6136841;28;20235;-72
2023/04/27 02:19:21;;;;;;;2.70;2.50;;;;;;;-143.99;100.00;64180.81;6130060;28;20597;-73
2023/04/27 02:22:43;;;;;;;2.93;1.50;;;;;;;-143.99;100.00;64180.81;6134519;28;20334;-73
2023/04/27 02:26:04;;;;;;;1.50;1.40;;;;;;;-143.99;100.00;64180.81;6135067;28;20429;-73
2023/04/27 02:29:30;;;;;;;1.93;1.70;;;;;;;-143.99;100.00;64180.81;6131761;28;20227;-73
2023/04/27 02:32:52;;;;;;;2.60;1.87;;;;;;;-143.99;100.00;64180.81;6142749;28;20230;-73
2023/04/27 02:36:12;;;;;;;1.73;1.63;;;;;;;-143.99;100.00;64180.81;6131764;28;20553;-73
2023/04/27 02:39:33;;;;;;;2.00;1.87;;;;;;;-143.99;100.00;64180.81;6145387;28;20242;-74
2023/04/27 02:42:54;;;;;;;1.80;1.40;;;;;;;-143.99;100.00;64180.81;6133820;28;20231;-73
2023/04/27 02:46:15;;;;;;;1.10;1.00;;;;;;;-143.99;100.00;64180.81;6120857;28;20219;-73
2023/04/27 02:49:37;;;;;;;1.13;1.03;;;;;;;-143.99;100.00;64180.81;6133425;28;20234;-71
2023/04/27 02:52:58;;;;;;;1.37;1.27;;;;;;;-143.99;100.00;64180.81;6142571;28;20239;-72
2023/04/27 02:56:19;;;;;;;1.83;1.73;;;;;;;-143.99;100.00;64180.81;6146177;28;21765;-73
2023/04/27 02:59:40;;;;;;;1.73;1.63;;;;;;;-143.99;100.00;64180.81;6136657;28;20505;-73
2023/04/27 03:03:01;;;;;;;2.27;2.13;;;;;;;-143.99;100.00;64180.81;6124643;28;20235;-72
2023/04/27 03:06:24;;;;;;;1.57;1.43;;;;;;;-143.99;100.00;64180.81;6130631;28;20234;-72
2023/04/27 03:09:45;;;;;;;1.60;1.50;;;;;;;-143.99;100.00;64180.81;6132623;28;20234;-73
2023/04/27 03:13:06;;;;;;;2.07;1.70;;;;;;;-143.99;100.00;64180.81;6134547;28;20711;-73
2023/04/27 03:16:26;;;;;;;2.73;1.60;;;;;;;-143.99;100.00;64180.81;6142846;28;20262;-73
2023/04/27 03:19:47;;;;;;;1.67;1.30;;;;;;;-143.99;100.00;64180.81;6125590;28;20322;-73
2023/04/27 03:23:10;;;;;;;2.43;1.93;;;;;;;-143.99;100.00;64180.81;6129987;28;20235;-73
2023/04/27 03:26:31;;;;;;;3.67;1.40;;;;;;;-143.99;100.00;64180.81;6130044;28;20232;-73
2023/04/27 03:29:52;;;;;;;1.80;0.97;;;;;;;-143.99;100.00;64180.81;6131581;28;20235;-73
2023/04/27 03:33:13;;;;;;;2.63;1.20;;;;;;;-143.99;100.00;64180.81;6139546;28;20227;-72
2023/04/27 03:36:34;;;;;;;1.73;1.63;;;;;;;-143.99;100.00;64180.81;6130126;28;20231;-72
2023/04/27 03:39:56;;;;;;;2.17;1.63;;;;;;;-143.99;100.00;64180.81;6143628;28;20234;-73
2023/04/27 03:43:17;;;;;;;1.57;1.47;;;;;;;-143.99;100.00;64180.81;6127712;28;20634;-73
2023/04/27 03:46:38;;;;;;;4.63;1.57;;;;;;;-143.99;100.00;64180.81;6121836;28;20519;-72
2023/04/27 03:49:59;;;;;;;5.07;2.40;;;;;;;-143.99;100.00;64180.81;6130114;28;20227;-73
2023/04/27 03:53:20;;;;;;;2.30;2.10;;;;;;;-143.99;100.00;64180.81;6119703;28;20339;-73
2023/04/27 03:56:43;;;;;;;4.30;2.30;;;;;;;-143.99;100.00;64180.81;6135458;28;20239;-72
2023/04/27 04:00:10;;;;;;;2.50;2.23;;;;;;;-143.99;100.00;64180.81;6139455;28;20519;-72
2023/04/27 04:03:33;;;;;;;5.50;2.37;;;;;;;-143.99;100.00;64180.81;6115067;28;20911;-72
2023/04/27 04:06:54;;;;;;;4.07;1.83;;;;;;;-143.99;100.00;64180.81;6144669;28;20238;-72
2023/04/27 04:10:17;;;;;;;5.13;2.00;;;;;;;-143.99;100.00;64180.81;6145922;28;20237;-72
2023/04/27 04:13:40;;;;;;;3.43;3.13;;;;;;;-143.99;100.00;64180.81;6135062;28;20246;-72
2023/04/27 04:17:02;;;;;;;3.13;1.97;;;;;;;-143.99;100.00;64180.81;6143054;28;20250;-72
2023/04/27 04:20:23;;;;;;;2.43;1.97;;;;;;;-143.99;100.00;64180.81;6140576;28;20566;-72
2023/04/27 04:23:44;;;;;;;3.97;2.60;;;;;;;-143.99;100.00;64180.81;6139111;28;20262;-73
2023/04/27 04:27:05;;;;;;;2.90;1.73;;;;;;;-143.99;100.00;64180.81;6128392;28;20236;-74
2023/04/27 04:30:27;;;;;;;2.43;2.00;;;;;;;-143.99;100.00;64180.81;6136592;28;20234;-73
2023/04/27 04:33:48;;;;;;;3.90;2.10;;;;;;;-143.99;100.00;64180.81;6140175;28;20611;-73
2023/04/27 04:37:10;;;;;;;4.17;2.20;;;;;;;-143.99;100.00;64180.81;6135300;28;20231;-73
2023/04/27 04:40:31;;;;;;;5.53;2.00;;;;;;;-143.99;100.00;64180.81;6141804;28;20242;-72
2023/04/27 04:43:53;;;;;;;3.57;3.27;;;;;;;-143.99;100.00;64180.81;6127581;28;20548;-73
2023/04/27 04:47:16;;;;;;;1.87;1.77;;;;;;;-143.99;100.00;64180.81;6136969;28;20235;-73
2023/04/27 04:50:40;;;;;;;2.07;1.83;;;;;;;-143.99;100.00;64180.81;6126030;28;20233;-73
2023/04/27 04:54:01;;;;;;;2.03;1.80;;;;;;;-143.99;100.00;64180.81;6125908;28;20238;-73
2023/04/27 04:57:22;;;;;;;2.30;2.10;;;;;;;-143.99;100.00;64180.81;6129460;28;20239;-73
2023/04/27 05:00:43;;;;;;;2.87;2.20;;;;;;;-143.99;100.00;64180.81;6118357;28;20617;-73
2023/04/27 05:04:05;;;;;;;1.77;1.63;;;;;;;-143.99;100.00;64180.81;6137569;28;20242;-74
2023/04/27 05:07:26;;;;;;;3.37;3.07;;;;;;;-143.99;100.00;64180.81;6134352;28;20351;-72
2023/04/27 05:10:49;;;;;;;4.00;1.70;;;;;;;-143.99;100.00;64180.81;6128944;28;20224;-73
2023/04/27 05:14:10;;;;;;;3.20;2.17;;;;;;;-143.99;100.00;64180.81;6116981;28;20222;-73
2023/04/27 05:17:31;;;;;;;2.17;2.07;;;;;;;-143.99;100.00;64180.81;6129948;28;20235;-72
2023/04/27 05:20:53;;;;;;;2.90;2.13;;;;;;;-143.99;100.00;64180.81;6130116;28;20311;-73
2023/04/27 05:24:14;;;;;;;2.67;1.70;;;;;;;-143.99;100.00;64180.81;6122711;28;20238;-73
2023/04/27 05:27:35;;;;;;;3.00;2.30;;;;;;;-143.99;100.00;64180.81;6120818;28;20231;-74
2023/04/27 05:30:56;;;;;;;4.87;2.50;;;;;;;-143.99;100.00;64180.81;6132062;28;20235;-73
2023/04/27 05:34:17;;;;;;;7.50;2.67;;;;;;;-143.99;100.00;64180.81;6122366;28;20263;-73
2023/04/27 05:37:39;;;;;;;2.83;2.53;;;;;;;-143.99;100.00;64180.81;6130860;28;20243;-74
2023/04/27 05:41:00;;;;;;;2.67;2.40;;;;;;;-143.99;100.00;64180.81;6131528;28;20243;-74
2023/04/27 05:44:24;;;;;;;3.07;2.77;;;;;;;-143.99;100.00;64180.81;6117112;28;20262;-69
2023/04/27 05:47:45;;;;;;;2.27;2.07;;;;;;;-143.99;100.00;64180.81;6127935;28;20231;-71
2023/04/27 05:51:06;;;;;;;4.80;2.40;;;;;;;-143.99;100.00;64180.81;6137085;28;20239;-71
2023/04/27 05:54:28;;;;;;;6.10;3.03;;;;;;;-143.99;100.00;64180.81;6132742;28;20237;-70
2023/04/27 05:57:49;;;;;;;2.73;2.50;;;;;;;-143.99;100.00;64180.81;6137957;28;20239;-69
2023/04/27 06:01:09;;;;;;;4.50;2.87;;;;;;;-143.99;100.00;64180.81;6135410;28;20239;-70
2023/04/27 06:04:31;;;;;;;2.97;2.20;;;;;;;-143.99;100.00;64180.81;6137321;28;20511;-70
2023/04/27 06:07:52;;;;;;;3.33;2.33;;;;;;;-143.99;100.00;64180.81;6132922;28;20366;-69
2023/04/27 06:11:15;;;;;;;5.87;2.77;;;;;;;-143.99;100.00;64180.81;6122906;28;20231;-70
2023/04/27 06:14:37;;;;;;;5.30;2.13;;;;;;;-143.99;100.00;64180.81;6117567;28;20231;-71
2023/04/27 06:17:57;;;;;;;5.03;1.77;;;;;;;-143.99;100.00;64180.81;6114454;28;20242;-70
2023/04/27 06:21:18;;;;;;;7.53;2.23;;;;;;;-143.99;100.00;64180.81;6117221;28;20231;-70
2023/04/27 06:24:41;;;;;;;5.07;3.03;;;;;;;-143.99;100.00;64180.81;6115971;28;20266;-70
2023/04/27 06:28:03;;;;;;;2.23;1.83;;;;;;;-143.99;100.00;64180.81;6121944;28;20254;-69
2023/04/27 06:31:25;;;;;;;3.83;2.57;;;;;;;-143.99;100.00;64180.81;6114080;28;20247;-70
2023/04/27 06:34:46;;;;;;;4.17;2.90;;;;;;;-143.99;100.00;64180.81;6111225;28;20746;-69
2023/04/27 06:38:07;;;;;;;6.20;2.30;;;;;;;-143.99;100.00;64180.81;6117848;28;20240;-70
2023/04/27 06:41:28;;;;;;;2.10;1.80;;;;;;;-143.99;100.00;64180.81;6123930;28;20338;-70
2023/04/27 06:44:53;;;;;;;1.97;1.83;;;;;;;-143.99;100.00;64180.81;6128735;28;20310;-70
2023/04/27 06:48:14;;;;;;;3.23;2.50;;;;;;;-143.99;100.00;64180.81;6128938;28;20235;-69
2023/04/27 06:51:35;;;;;;;2.37;2.07;;;;;;;-143.99;100.00;64180.81;6131149;28;20617;-71
2023/04/27 06:54:56;;;;;;;7.40;4.10;;;;;;;-143.99;100.00;64180.81;6129851;28;20238;-70
2023/04/27 06:58:17;;;;;;;1.80;1.70;;;;;;;-143.99;100.00;64180.81;6126302;28;20230;-71
2023/04/27 07:01:39;;;;;;;3.87;2.23;;;;;;;-143.99;100.00;64180.81;6139021;28;20247;-68
2023/04/27 07:05:00;;;;;;;8.77;2.73;;;;;;;-143.99;100.00;64180.81;6129438;28;20233;-74
2023/04/27 07:08:21;;;;;;;3.93;2.83;;;;;;;-143.99;100.00;64180.81;6120484;28;20231;-73
2023/04/27 07:11:42;;;;;;;3.13;2.90;;;;;;;-143.99;100.00;64180.81;6136065;28;20266;-73
2023/04/27 07:15:05;;;;;;;2.30;1.73;;;;;;;-143.99;100.00;64180.81;6135493;28;20230;-74
2023/04/27 07:18:27;;;;;;;2.33;2.17;;;;;;;-143.99;100.00;64180.81;6114732;28;20235;-71
2023/04/27 07:21:49;;;;;;;7.00;2.07;;;;;;;-143.99;100.00;64180.81;6135200;28;20227;-69
2023/04/27 07:25:10;;;;;;;2.03;1.83;;;;;;;-143.99;100.00;64180.81;6131402;28;20566;-71
2023/04/27 07:28:31;;;;;;;4.63;1.40;;;;;;;-143.99;100.00;64180.81;6130738;28;20231;-71
2023/04/27 07:31:52;;;;;;;4.27;2.63;;;;;;;-143.99;100.00;64180.81;6134461;28;20325;-69
2023/04/27 07:35:14;;;;;;;2.33;2.13;;;;;;;-143.99;100.00;64180.81;6139882;28;20326;-70
2023/04/27 07:38:37;;;;;;;4.53;1.80;;;;;;;-143.99;100.00;64180.81;6127222;28;20239;-70
2023/04/27 07:41:58;;;;;;;1.87;1.73;;;;;;;-143.99;100.00;64180.81;6148387;28;20243;-69
2023/04/27 07:45:19;;;;;;;1.73;1.53;;;;;;;-143.99;100.00;64180.81;6144330;28;20314;-70
2023/04/27 07:48:40;;;;;;;3.70;2.43;;;;;;;-143.99;100.00;64180.81;6125585;28;20226;-71
2023/04/27 07:52:03;;;;;;;3.13;1.80;;;;;;;-143.99;100.00;64180.81;6139992;28;20223;-68
2023/04/27 07:55:24;;;;;;;1.93;1.40;;;;;;;-143.99;100.00;64180.81;6140991;28;20242;-69
2023/04/27 07:58:45;;;;;;;1.77;1.60;;;;;;;-143.99;100.00;64180.81;6120805;28;20226;-69
2023/04/27 08:02:06;;;;;;;1.13;1.10;;;;;;;-143.99;100.00;64180.81;6126002;28;20239;-68
2023/04/27 08:05:27;;;;;;;3.30;1.60;;;;;;;-143.99;100.00;64180.81;6114394;28;20234;-68
2023/04/27 08:08:49;;;;;;;4.00;1.77;;;;;;;-143.99;100.00;64180.81;6114118;28;20238;-70
2023/04/27 08:12:10;;;;;;;2.73;1.33;;;;;;;-143.99;100.00;64180.81;6125268;28;20235;-70
2023/04/27 08:15:31;;;;;;;1.30;1.17;;;;;;;-143.99;100.00;64180.81;6117234;28;20341;-73
2023/04/27 08:18:52;;;;;;;2.07;1.43;;;;;;;-143.99;100.00;64180.81;6109843;28;20262;-71
2023/04/27 08:22:13;;;;;;;2.53;1.60;;;;;;;-143.99;100.00;64180.81;6116579;28;20240;-70
2023/04/27 08:25:36;;;;;;;2.90;1.17;;;;;;;-143.99;100.00;64180.81;6118934;28;20239;-70
2023/04/27 08:28:58;;;;;;;4.13;1.30;;;;;;;-143.99;100.00;64180.81;6113196;28;20231;-71
2023/04/27 08:32:19;;;;;;;2.73;1.63;;;;;;;-143.99;100.00;64180.81;6140781;28;20239;-71
2023/04/27 08:35:40;;;;;;;6.27;1.70;;;;;;;-143.99;100.00;64180.81;6143180;28;20223;-71
2023/04/27 08:39:01;;;;;;;1.47;1.17;;;;;;;-143.99;100.00;64180.81;6136129;28;20234;-69
2023/04/27 08:42:23;;;;;;;1.47;1.37;;;;;;;-143.99;100.00;64180.81;6145446;28;20236;-69
2023/04/27 08:45:49;;;;;;;1.70;1.60;;;;;;;-143.99;100.00;64180.81;6137708;28;20325;-67
2023/04/27 08:49:10;;;;;;;1.67;1.33;;;;;;;-143.99;100.00;64180.81;6135888;28;20242;-69
2023/04/27 08:52:31;;;;;;;2.97;1.60;;;;;;;-143.99;100.00;64180.81;6137746;28;20239;-71
2023/04/27 08:55:54;;;;;;;1.57;1.13;;;;;;;-143.99;100.00;64180.81;6132716;28;20930;-70
2023/04/27 08:59:16;;;;;;;1.37;1.27;;;;;;;-143.99;100.00;64180.81;6133666;28;20257;-69
2023/04/27 09:02:37;;;;;;;1.57;1.47;;;;;;;-143.99;100.00;64180.81;6141021;28;20238;-68
2023/04/27 09:05:58;;;;;;;1.40;1.30;;;;;;;-143.99;100.00;64180.81;6146507;28;20504;-68
2023/04/27 09:09:23;;;;;;;1.57;1.30;;;;;;;-143.99;100.00;64180.81;6137042;28;20234;-70
2023/04/27 09:12:54;;;;;;;2.20;1.33;;;;;;;-143.99;100.00;64180.81;6145239;28;20251;-71
2023/04/27 09:16:23;;;;;;;0.87;0.87;;;;;;;-143.99;100.00;64180.81;6127217;28;20266;-71
2023/04/27 09:19:44;;;;;;;2.37;1.67;;;;;;;-143.99;100.00;64180.81;6143651;28;20537;-71
2023/04/27 09:23:04;;;;;;;0.83;0.83;;;;;;;-143.99;100.00;64180.81;6139051;28;20397;-71
2023/04/27 09:26:27;;;;;;;1.60;1.50;;;;;;;-143.99;100.00;64180.81;6129462;28;20280;-69
2023/04/27 09:29:48;;;;;;;1.07;1.00;;;;;;;-143.99;100.00;64180.81;6125029;28;20219;-70
2023/04/27 09:33:10;;;;;;;1.47;1.30;;;;;;;-143.99;100.00;64180.81;6130865;28;20596;-69
2023/04/27 09:36:32;;;;;;;1.67;1.30;;;;;;;-143.99;100.00;64180.81;6129564;28;20248;-69
2023/04/27 09:39:53;;;;;;;5.67;1.87;;;;;;;-143.99;100.00;64180.81;6126738;28;20242;-70
2023/04/27 09:43:14;;;;;;;2.10;1.97;;;;;;;-143.99;100.00;64180.81;6139303;28;20239;-70
2023/04/27 09:46:35;;;;;;;3.20;1.67;;;;;;;-143.99;100.00;64180.81;6125734;28;20274;-70
2023/04/27 09:49:59;;;;;;;2.27;1.80;;;;;;;-143.99;100.00;64180.81;6127430;28;20253;-70
2023/04/27 09:53:25;;;;;;;1.23;1.13;;;;;;;-143.99;100.00;64180.81;6124371;28;20231;-71
2023/04/27 09:56:55;;;;;;;1.33;1.23;;;;;;;-143.99;100.00;64180.81;6136836;28;20231;-70
2023/04/27 10:00:26;;;;;;;1.30;1.00;;;;;;;-143.99;100.00;64180.81;6140981;28;20235;-70
2023/04/27 10:04:02;;;;;;;1.10;1.00;;;;;;;-143.99;100.00;64180.81;6141161;28;20608;-70
2023/04/27 10:07:27;;;;;;;1.10;0.90;;;;;;;-143.99;100.00;64180.81;6152963;28;20219;-70
2023/04/27 10:10:48;;;;;;;0.97;0.93;;;;;;;-143.99;100.00;64180.81;6144960;28;20219;-70
2023/04/27 10:14:11;;;;;;;2.10;1.33;;;;;;;-143.99;100.00;64180.81;6140538;28;20273;-71
2023/04/27 10:17:33;;;;;;;2.00;1.00;;;;;;;-143.99;100.00;64180.81;6146450;28;20231;-71
2023/04/27 10:20:54;;;;;;;1.73;1.63;;;;;;;-143.99;100.00;64180.81;6144168;28;20690;-70
2023/04/27 10:24:16;;;;;;;1.57;1.40;;;;;;;-143.99;100.00;64180.81;6138437;28;20226;-70
2023/04/27 10:27:40;;;;;;;1.67;1.57;;;;;;;-143.99;100.00;64180.81;6144123;28;20228;-68
2023/04/27 10:31:10;;;;;;;4.90;1.20;;;;;;;-143.99;100.00;64180.81;6149327;28;20233;-70
2023/04/27 10:34:35;;;;;;;1.83;1.70;;;;;;;-143.99;100.00;64180.81;6129150;28;20234;-71
2023/04/27 10:38:05;;;;;;;3.10;1.53;;;;;;;-143.99;100.00;64180.81;6143824;28;20243;-70
2023/04/27 10:41:35;;;;;;;1.10;1.10;;;;;;;-143.99;100.00;64180.81;6134731;28;20234;-70
2023/04/27 10:44:57;;;;;;;1.33;1.07;;;;;;;-143.99;100.00;64180.81;6140999;28;20258;-69
2023/04/27 10:48:18;;;;;;;0.80;0.80;;;;;;;-143.99;100.00;64180.81;6134383;28;20226;-71
2023/04/27 10:51:39;;;;;;;2.00;1.23;;;;;;;-143.99;100.00;64180.81;6143277;28;20238;-71
2023/04/27 10:55:12;;;;;;;1.83;1.40;;;;;;;-143.99;100.00;64180.81;6132816;28;20269;-70
2023/04/27 10:58:35;;;;;;;1.57;1.20;;;;;;;-143.99;100.00;64180.81;6117163;28;20231;-68
2023/04/27 11:01:56;;;;;;;1.63;1.40;;;;;;;-143.99;100.00;64180.81;6139722;28;20536;-68
2023/04/27 11:05:22;;;;;;;2.40;1.63;;;;;;;-143.99;100.00;64180.81;6132304;28;20227;-72
2023/04/27 11:08:46;;;;;;;2.60;1.73;;;;;;;-143.99;100.00;64180.81;6121042;28;20238;-69
2023/04/27 11:12:07;;;;;;;3.57;1.57;;;;;;;-143.99;100.00;64180.81;6143110;28;20247;-68
2023/04/27 11:15:29;;;;;;;1.57;1.30;;;;;;;-143.99;100.00;64180.81;6135407;28;20242;-70
2023/04/27 11:18:50;;;;;;;2.87;2.37;;;;;;;-143.99;100.00;64180.81;6128528;28;20239;-71
2023/04/27 11:22:11;;;;;;;2.90;1.37;;;;;;;-143.99;100.00;64180.81;6141582;28;20227;-70
2023/04/27 11:25:32;;;;;;;6.47;1.60;;;;;;;-143.99;100.00;64180.81;6139887;28;20527;-69
2023/04/27 11:28:58;;;;;;;2.43;2.33;;;;;;;-143.99;100.00;64180.81;6130674;28;20238;-69
2023/04/27 11:32:21;;;;;;;3.50;2.17;;;;;;;-143.99;100.00;64180.81;6136372;28;20231;-71
2023/04/27 11:35:42;;;;;;;7.10;2.13;;;;;;;-143.99;100.00;64180.81;6140795;28;20299;-72
2023/04/27 11:39:05;;;;;;;3.47;1.90;;;;;;;-143.99;100.00;64180.81;6135863;28;20230;-71
2023/04/27 11:42:27;;;;;;;2.80;1.87;;;;;;;-143.99;100.00;64180.81;6142994;28;20251;-74
2023/04/27 11:45:48;;;;;;;2.03;1.70;;;;;;;-143.99;100.00;64180.81;6137350;28;20223;-73
2023/04/27 11:49:11;;;;;;;1.80;1.67;;;;;;;-143.99;100.00;64180.81;6132891;28;20510;-72
2023/04/27 11:52:33;;;;;;;2.63;2.10;;;;;;;-143.99;100.00;64180.81;6141659;28;20294;-72
2023/04/27 11:55:54;;;;;;;2.77;1.50;;;;;;;-143.99;100.00;64180.81;6137207;28;20238;-74
2023/04/27 11:59:20;;;;;;;1.00;0.97;;;;;;;-143.99;100.00;64180.81;6130798;28;20226;-71
2023/04/27 12:02:43;;;;;;;3.73;1.97;;;;;;;-143.99;100.00;64180.81;6140793;28;20605;-70
2023/04/27 12:06:05;;;;;;;1.60;1.50;;;;;;;-143.99;100.00;64180.81;6133563;28;20227;-72
2023/04/27 12:09:27;;;;;;;1.80;1.17;;;;;;;-143.99;100.00;64180.81;6137646;28;20242;-72
2023/04/27 12:12:48;;;;;;;2.73;1.87;;;;;;;-143.99;100.00;64180.81;6139369;28;20570;-67
2023/04/27 12:16:09;;;;;;;1.97;1.50;;;;;;;-143.99;100.00;64180.81;6137615;28;20232;-70
2023/04/27 12:19:30;;;;;;;1.67;1.53;;;;;;;-143.99;100.00;64180.81;6136654;28;20313;-71
2023/04/27 12:22:54;;;;;;;3.03;1.83;;;;;;;-143.99;100.00;64180.81;6141391;28;20227;-69
2023/04/27 12:26:14;;;;;;;1.43;1.33;;;;;;;-143.99;100.00;64180.81;6139633;28;20231;-69
2023/04/27 12:29:35;;;;;;;1.40;1.30;;;;;;;-143.99;100.00;64180.81;6145591;28;20235;-71
2023/04/27 12:32:58;;;;;;;2.30;1.20;;;;;;;-143.99;100.00;64180.81;6136635;28;20608;-71
2023/04/27 12:36:19;;;;;;;1.27;1.00;;;;;;;-143.99;100.00;64180.81;6127914;28;20231;-70
2023/04/27 12:39:41;;;;;;;1.77;1.67;;;;;;;-143.99;100.00;64180.81;6134328;28;20234;-70
2023/04/27 12:43:02;;;;;;;2.73;2.47;;;;;;;-143.99;100.00;64180.81;6139387;28;20239;-69
2023/04/27 12:46:22;;;;;;;5.23;2.63;;;;;;;-143.99;100.00;64180.81;6141152;28;20540;-72
2023/04/27 12:49:43;;;;;;;2.90;1.50;;;;;;;-143.99;100.00;64180.81;6128696;28;20620;-73
2023/04/27 12:53:04;;;;;;;1.23;1.13;;;;;;;-143.99;100.00;64180.81;6136861;28;20235;-71
2023/04/27 12:56:26;;;;;;;2.33;2.07;;;;;;;-143.99;100.00;64180.81;6137348;28;20234;-71
2023/04/27 12:59:47;;;;;;;2.23;1.60;;;;;;;-143.99;100.00;64180.81;6138677;28;20616;-71
2023/04/27 13:03:08;;;;;;;1.60;1.50;;;;;;;-143.99;100.00;64180.81;6132249;28;20266;-73
2023/04/27 13:06:30;;;;;;;2.50;1.57;;;;;;;-143.99;100.00;64180.81;6132357;28;20243;-72
2023/04/27 13:09:51;;;;;;;6.73;2.17;;;;;;;-143.99;100.00;64180.81;6130056;28;20230;-72
2023/04/27 13:13:14;;;;;;;2.20;1.63;;;;;;;-143.99;100.00;64180.81;6135764;28;20235;-70
2023/04/27 13:16:34;;;;;;;1.50;1.30;;;;;;;-143.99;100.00;64180.81;6140356;28;20235;-73
2023/04/27 13:19:56;;;;;;;2.00;1.63;;;;;;;-143.99;100.00;64180.81;6132791;28;20305;-70
2023/04/27 13:23:17;;;;;;;2.23;2.03;;;;;;;-143.99;100.00;64180.81;6123901;28;20247;-69
2023/04/27 13:26:38;;;;;;;1.50;1.40;;;;;;;-143.99;100.00;64180.81;6133111;28;20227;-68
2023/04/27 13:30:00;;;;;;;2.40;2.20;;;;;;;-143.99;100.00;64180.81;6137866;28;20232;-70
2023/04/27 13:36:57;;;;;;;1.67;1.57;;;;;;;-143.99;100.00;64180.81;6082247;29;20232;-69
2023/04/27 13:40:18;;;;;;;2.53;1.93;;;;;;;-143.99;100.00;64180.81;6079901;29;20613;-70
2023/04/27 13:43:39;;;;;;;2.67;2.10;;;;;;;-143.99;100.00;64180.81;6075592;29;20235;-70
2023/04/27 13:47:01;;;;;;;3.50;2.13;;;;;;;-143.99;100.00;64180.81;6097683;29;20236;-72
2023/04/27 13:50:23;;;;;;;2.37;2.20;;;;;;;-143.99;100.00;64180.81;6092837;29;20239;-72
2023/04/27 13:53:44;;;;;;;3.17;1.90;;;;;;;-143.99;100.00;64180.81;6078767;29;20231;-69
2023/04/27 13:57:04;;;;;;;2.47;2.00;;;;;;;-143.99;100.00;64180.81;6098270;29;20241;-69
2023/04/27 14:00:27;;;;;;;2.33;1.90;;;;;;;-143.99;100.00;64180.81;6078003;29;20235;-71
2023/04/27 14:03:49;;;;;;;2.77;2.50;;;;;;;-143.99;100.00;64180.81;6077241;29;20273;-70
2023/04/27 14:07:10;;;;;;;2.47;2.10;;;;;;;-143.99;100.00;64180.81;6068733;29;20236;-69
2023/04/27 14:10:31;;;;;;;3.27;2.50;;;;;;;-143.99;100.00;64180.81;6078271;29;20225;-69
2023/04/27 14:13:52;;;;;;;2.57;2.37;;;;;;;-143.99;100.00;64180.81;6075013;29;20229;-70
2023/04/27 14:17:12;;;;;;;3.57;1.60;;;;;;;-143.99;100.00;64180.81;6076080;29;20624;-70
2023/04/27 14:20:35;;;;;;;2.40;1.67;;;;;;;-143.99;100.00;64180.81;6080686;29;20619;-68
2023/04/27 14:23:56;;;;;;;9.10;2.30;;;;;;;-143.99;100.00;64180.81;6080417;29;20235;-72
2023/04/27 14:27:16;;;;;;;1.87;1.77;;;;;;;-143.99;100.00;64180.81;6089751;29;20240;-71
2023/04/27 14:30:37;;;;;;;2.07;1.93;;;;;;;-143.99;100.00;64180.81;6069039;29;20236;-68
2023/04/27 14:33:58;;;;;;;1.47;1.37;;;;;;;-143.99;100.00;64180.81;6083370;29;20272;-73
2023/04/27 14:37:20;;;;;;;2.17;1.57;;;;;;;-143.99;100.00;64180.81;6085937;29;20268;-74
2023/04/27 14:40:41;;;;;;;2.00;1.80;;;;;;;-143.99;100.00;64180.81;6084876;29;20228;-72
2023/04/27 14:44:02;;;;;;;2.83;1.70;;;;;;;-143.99;100.00;64180.81;6073400;29;20600;-69
2023/04/27 14:47:23;;;;;;;3.53;2.33;;;;;;;-143.99;100.00;64180.81;6083579;29;20260;-69
2023/04/27 14:50:44;;;;;;;3.23;2.17;;;;;;;-143.99;100.00;64180.81;6074619;29;20445;-72
2023/04/27 14:54:08;;;;;;;1.70;1.60;;;;;;;-143.99;100.00;64180.81;6078505;29;20648;-70
2023/04/27 14:57:28;;;;;;;0.93;0.93;;;;;;;-143.99;100.00;64180.81;6081566;29;20236;-69
2023/04/27 15:00:50;;;;;;;1.90;1.80;;;;;;;-143.99;100.00;64180.81;6062947;29;20232;-69
2023/04/27 15:04:10;;;;;;;2.33;1.73;;;;;;;-143.99;100.00;64180.81;6066744;29;20249;-70
2023/04/27 15:07:31;;;;;;;8.23;2.33;;;;;;;-143.99;100.00;64180.81;6074745;29;20254;-71
2023/04/27 15:10:56;;;;;;;1.73;1.50;;;;;;;-143.99;100.00;64180.81;6067030;29;20245;-70
2023/04/27 15:14:17;;;;;;;2.33;2.13;;;;;;;-143.99;100.00;64180.81;6062473;29;21876;-73
2023/04/27 15:17:38;;;;;;;3.30;2.10;;;;;;;-143.99;100.00;64180.81;6078134;29;20245;-72
2023/04/27 15:20:59;;;;;;;3.73;2.37;;;;;;;-143.99;100.00;64180.81;6077210;29;20519;-73